createdAt,value
2019-02-18T00:00:37.972Z,17.57
2019-02-18T00:03:05.931Z,14.27
2019-02-18T00:05:33.237Z,13.00
2019-02-18T00:08:00.568Z,14.73
2019-02-18T00:10:28.023Z,15.80
2019-02-18T00:12:55.359Z,13.00
2019-02-18T00:15:22.687Z,14.07
2019-02-18T00:18:09.509Z,18.50
2019-02-18T00:20:36.883Z,13.50
2019-02-18T00:23:04.207Z,13.27
2019-02-18T00:25:31.542Z,15.23
2019-02-18T00:27:58.867Z,14.47
2019-02-18T00:30:26.200Z,14.60
2019-02-18T00:33:13.272Z,14.27
2019-02-18T00:35:40.591Z,15.50
2019-02-18T00:38:07.920Z,14.23
2019-02-18T00:40:35.262Z,16.10
2019-02-18T00:43:02.597Z,15.00
2019-02-18T00:45:30.059Z,15.20
2019-02-18T00:47:57.386Z,15.33
2019-02-18T00:50:44.583Z,14.60
2019-02-18T00:53:13.768Z,16.53
2019-02-18T00:55:41.120Z,14.23
2019-02-18T00:58:08.992Z,15.60
2019-02-18T01:00:36.301Z,14.90
2019-02-18T01:03:23.399Z,15.67
2019-02-18T01:05:50.757Z,15.37
2019-02-18T01:08:18.195Z,15.97
2019-02-18T01:10:45.511Z,14.57
2019-02-18T01:13:12.927Z,16.37
2019-02-18T01:15:40.247Z,15.93
2019-02-18T01:18:07.759Z,13.03
2019-02-18T01:20:35.187Z,16.60
2019-02-18T01:23:02.589Z,17.47
2019-02-18T01:25:30.026Z,16.53
2019-02-18T01:27:57.340Z,16.37
2019-02-18T01:30:24.670Z,13.47
2019-02-18T01:32:52.039Z,15.47
2019-02-18T01:35:19.342Z,18.43
2019-02-18T01:37:46.681Z,16.33
2019-02-18T01:40:14.012Z,16.20
2019-02-18T01:42:41.304Z,14.43
2019-02-18T01:45:09.901Z,14.67
2019-02-18T01:47:37.270Z,15.40
2019-02-18T01:50:06.377Z,15.43
2019-02-18T01:52:33.666Z,16.70
2019-02-18T01:55:01.033Z,14.00
2019-02-18T01:57:28.354Z,16.30
2019-02-18T01:59:55.735Z,15.20
2019-02-18T02:02:23.116Z,17.60
2019-02-18T02:04:50.443Z,16.27
2019-02-18T02:07:37.224Z,15.33
2019-02-18T02:10:05.110Z,17.23
2019-02-18T02:12:32.422Z,13.93
2019-02-18T02:14:59.759Z,14.50
2019-02-18T02:17:27.098Z,14.40
2019-02-18T02:19:54.538Z,14.60
2019-02-18T02:22:21.955Z,14.40
2019-02-18T02:24:49.287Z,15.13
2019-02-18T02:27:16.684Z,13.57
2019-02-18T02:29:44.052Z,15.50
2019-02-18T02:32:11.501Z,15.03
2019-02-18T02:34:38.892Z,14.57
2019-02-18T02:37:25.673Z,14.83
2019-02-18T02:39:53.405Z,13.90
2019-02-18T02:42:20.723Z,16.50
2019-02-18T02:44:48.149Z,16.00
2019-02-18T02:47:15.463Z,13.77
2019-02-18T02:49:42.801Z,13.93
2019-02-18T02:52:10.173Z,14.23
2019-02-18T02:54:37.466Z,15.13
2019-02-18T02:57:04.818Z,14.60
2019-02-18T02:59:32.261Z,14.03
2019-02-18T03:01:59.717Z,15.03
2019-02-18T03:04:27.040Z,16.73
2019-02-18T03:06:54.426Z,16.83
2019-02-18T03:09:21.732Z,15.67
2019-02-18T03:11:49.119Z,12.67
2019-02-18T03:14:16.469Z,15.03
2019-02-18T03:16:43.763Z,14.03
2019-02-18T03:19:11.143Z,14.57
2019-02-18T03:21:38.466Z,16.20
2019-02-18T03:24:05.786Z,13.53
2019-02-18T03:26:33.148Z,13.67
2019-02-18T03:29:48.801Z,13.50
2019-02-18T03:32:16.194Z,13.20
2019-02-18T03:34:45.080Z,14.90
2019-02-18T03:37:31.867Z,13.93
2019-02-18T03:39:59.203Z,15.13
2019-02-18T03:42:26.527Z,15.73
2019-02-18T03:44:53.852Z,13.13
2019-02-18T03:47:21.207Z,12.67
2019-02-18T03:49:48.610Z,14.30
2019-02-18T03:52:16.045Z,15.27
2019-02-18T03:54:43.390Z,13.83
2019-02-18T03:57:10.733Z,15.17
2019-02-18T03:59:38.078Z,14.80
2019-02-18T04:02:05.459Z,16.03
2019-02-18T04:04:32.794Z,18.27
2019-02-18T04:07:00.100Z,13.87
2019-02-18T04:09:27.421Z,18.10
2019-02-18T04:11:54.778Z,16.63
2019-02-18T04:14:22.249Z,15.43
2019-02-18T04:16:49.568Z,16.97
2019-02-18T04:19:16.901Z,14.57
2019-02-18T04:21:44.232Z,20.17
2019-02-18T04:24:11.640Z,16.33
2019-02-18T04:26:40.735Z,13.57
2019-02-18T04:29:08.066Z,14.67
2019-02-18T04:31:35.486Z,13.50
2019-02-18T04:34:02.802Z,14.97
2019-02-18T04:36:30.180Z,15.97
2019-02-18T04:38:57.630Z,17.57
2019-02-18T04:41:24.966Z,15.43
2019-02-18T04:43:52.438Z,17.30
2019-02-18T04:46:19.742Z,17.10
2019-02-18T04:48:47.038Z,17.03
2019-02-18T04:51:14.348Z,17.73
2019-02-18T04:53:41.652Z,14.80
2019-02-18T04:56:08.967Z,14.37
2019-02-18T04:58:36.340Z,17.40
2019-02-18T05:01:03.705Z,16.10
2019-02-18T05:03:31.021Z,14.60
2019-02-18T05:05:58.490Z,14.57
2019-02-18T05:08:25.822Z,13.33
2019-02-18T05:10:53.258Z,15.37
2019-02-18T05:13:20.658Z,14.70
2019-02-18T05:15:47.988Z,14.10
2019-02-18T05:18:15.324Z,15.40
2019-02-18T05:20:42.694Z,14.00
2019-02-18T05:23:10.036Z,14.17
2019-02-18T05:25:37.355Z,14.50
2019-02-18T05:28:04.711Z,14.83
2019-02-18T05:30:32.125Z,15.00
2019-02-18T05:32:59.494Z,15.67
2019-02-18T05:35:26.911Z,15.93
2019-02-18T05:37:54.228Z,13.70
2019-02-18T05:40:21.625Z,14.27
2019-02-18T05:42:49.095Z,16.97
2019-02-18T05:45:16.473Z,14.97
2019-02-18T05:47:43.891Z,18.23
2019-02-18T05:50:11.242Z,14.53
2019-02-18T05:52:38.706Z,13.20
2019-02-18T05:55:06.076Z,16.53
2019-02-18T05:57:33.497Z,16.23
2019-02-18T06:00:00.910Z,15.73
2019-02-18T06:02:28.330Z,15.10
2019-02-18T06:04:55.640Z,14.60
2019-02-18T06:07:23.017Z,16.27
2019-02-18T06:09:50.321Z,15.10
2019-02-18T06:12:17.728Z,16.60
2019-02-18T06:14:45.104Z,15.13
2019-02-18T06:17:12.491Z,15.03
2019-02-18T06:19:39.877Z,14.87
2019-02-18T06:22:07.287Z,15.10
2019-02-18T06:24:34.631Z,15.30
2019-02-18T06:27:01.974Z,14.70
2019-02-18T06:29:29.614Z,14.33
2019-02-18T06:32:16.509Z,15.20
2019-02-18T06:34:45.089Z,14.43
2019-02-18T06:37:12.390Z,15.97
2019-02-18T06:39:41.766Z,15.33
2019-02-18T06:42:11.080Z,15.57
2019-02-18T06:44:44.278Z,15.33
2019-02-18T06:47:14.903Z,15.93
2019-02-18T06:49:42.315Z,12.97
2019-02-18T06:52:09.808Z,20.60
2019-02-18T06:54:56.720Z,13.60
2019-02-18T06:57:46.471Z,15.13
2019-02-18T07:00:32.263Z,13.93
2019-02-18T07:03:11.750Z,13.50
2019-02-18T07:06:02.730Z,14.27
2019-02-18T07:08:56.055Z,14.40
2019-02-18T07:11:27.941Z,17.37
2019-02-18T07:14:15.900Z,15.23
2019-02-18T07:19:40.860Z,13.77
2019-02-18T07:22:08.525Z,12.63
2019-02-18T07:24:35.814Z,14.17
2019-02-18T07:27:22.871Z,14.90
2019-02-18T07:29:50.392Z,15.90
2019-02-18T07:32:17.850Z,17.33
2019-02-18T07:34:45.183Z,16.50
2019-02-18T07:37:12.517Z,14.97
2019-02-18T07:40:02.041Z,15.00
2019-02-18T07:42:28.632Z,22.60
2019-02-18T07:44:55.959Z,15.03
2019-02-18T07:47:44.671Z,15.17
2019-02-18T07:50:20.302Z,19.77
2019-02-18T07:52:41.607Z,17.07
2019-02-18T07:55:09.392Z,17.20
2019-02-18T07:57:36.695Z,14.43
2019-02-18T08:00:04.675Z,16.27
2019-02-18T08:02:32.125Z,15.13
2019-02-18T08:05:02.046Z,18.57
2019-02-18T08:07:28.811Z,19.00
2019-02-18T08:09:56.178Z,14.93
2019-02-18T08:12:23.588Z,16.90
2019-02-18T08:14:51.795Z,19.43
2019-02-18T08:17:19.160Z,16.43
2019-02-18T08:19:46.459Z,19.87
2019-02-18T08:22:33.258Z,20.67
2019-02-18T08:25:00.667Z,15.73
2019-02-18T08:27:27.982Z,18.53
2019-02-18T08:29:55.327Z,17.77
2019-02-18T08:32:22.684Z,15.67
2019-02-18T08:34:50.001Z,18.33
2019-02-18T08:37:17.340Z,14.97
2019-02-18T08:39:44.650Z,14.20
2019-02-18T08:42:11.995Z,20.10
2019-02-18T08:44:39.347Z,20.57
2019-02-18T08:47:06.647Z,19.43
2019-02-18T08:49:34.006Z,15.27
2019-02-18T08:52:20.877Z,17.37
2019-02-18T08:54:56.189Z,15.40
2019-02-18T08:57:17.406Z,20.57
2019-02-18T08:59:44.771Z,16.77
2019-02-18T09:02:12.069Z,18.63
2019-02-18T09:04:39.548Z,19.30
2019-02-18T09:07:07.107Z,14.10
2019-02-18T09:09:34.401Z,14.67
2019-02-18T09:12:01.852Z,17.47
2019-02-18T09:14:29.180Z,13.03
2019-02-18T09:16:56.491Z,16.97
2019-02-18T09:19:23.808Z,19.60
2019-02-18T09:21:59.516Z,17.13
2019-02-18T09:24:31.457Z,16.17
2019-02-18T09:26:59.595Z,15.10
2019-02-18T09:29:27.029Z,16.20
2019-02-18T09:31:54.322Z,17.73
2019-02-18T09:34:21.674Z,17.23
2019-02-18T09:37:08.469Z,14.97
2019-02-18T09:39:35.827Z,14.93
2019-02-18T09:42:03.218Z,15.03
2019-02-18T09:44:30.714Z,15.23
2019-02-18T09:46:58.078Z,15.50
2019-02-18T09:49:25.515Z,16.73
2019-02-18T09:51:53.218Z,14.40
2019-02-18T09:54:20.564Z,20.23
2019-02-18T09:56:47.967Z,16.10
2019-02-18T09:59:15.340Z,18.73
2019-02-18T10:01:43.351Z,13.17
2019-02-18T10:04:10.879Z,17.87
2019-02-18T10:06:38.267Z,15.53
2019-02-18T10:09:05.648Z,19.03
2019-02-18T10:11:52.448Z,16.47
2019-02-18T10:14:21.265Z,15.03
2019-02-18T10:16:48.574Z,17.30
2019-02-18T10:19:15.909Z,19.63
2019-02-18T10:21:43.243Z,20.37
2019-02-18T10:24:10.547Z,14.97
2019-02-18T10:26:38.460Z,18.43
2019-02-18T10:29:05.832Z,15.60
2019-02-18T10:31:33.169Z,18.17
2019-02-18T10:34:00.623Z,15.70
2019-02-18T10:36:27.936Z,13.53
2019-02-18T10:38:55.238Z,20.27
2019-02-18T10:41:22.572Z,18.20
2019-02-18T10:43:49.890Z,18.57
2019-02-18T10:46:17.206Z,17.47
2019-02-18T10:48:44.640Z,16.83
2019-02-18T10:51:33.203Z,15.27
2019-02-18T10:54:00.627Z,18.07
2019-02-18T10:56:28.327Z,21.27
2019-02-18T10:58:55.674Z,23.23
2019-02-18T11:01:23.108Z,17.37
2019-02-18T11:03:50.450Z,21.87
2019-02-18T11:06:17.787Z,25.60
2019-02-18T11:08:45.103Z,21.83
2019-02-18T11:11:16.997Z,14.97
2019-02-18T11:13:49.126Z,18.40
2019-02-18T11:16:16.538Z,19.27
2019-02-18T11:18:43.863Z,16.90
2019-02-18T11:21:11.566Z,17.43
2019-02-18T11:23:38.880Z,18.50
2019-02-18T11:26:06.202Z,17.03
2019-02-18T11:28:33.722Z,15.70
2019-02-18T11:31:01.099Z,18.10
2019-02-18T11:33:28.520Z,16.27
2019-02-18T11:35:55.972Z,19.83
2019-02-18T11:38:23.421Z,13.57
2019-02-18T11:40:50.839Z,17.47
2019-02-18T11:43:38.031Z,16.43
2019-02-18T11:48:50.275Z,15.63
2019-02-18T11:51:37.468Z,22.03
2019-02-18T11:54:04.926Z,15.10
2019-02-18T11:56:32.718Z,20.93
2019-02-18T11:59:00.031Z,18.97
2019-02-18T12:01:28.407Z,18.80
2019-02-18T12:04:15.450Z,18.70
2019-02-18T12:06:44.594Z,14.37
2019-02-18T12:09:12.231Z,17.83
2019-02-18T12:11:59.118Z,18.80
2019-02-18T12:14:27.475Z,18.93
2019-02-18T12:16:55.135Z,19.67
2019-02-18T12:19:22.568Z,17.07
2019-02-18T12:21:49.963Z,19.13
2019-02-18T12:24:17.275Z,16.80
2019-02-18T12:27:04.085Z,18.13
2019-02-18T12:29:31.386Z,16.03
2019-02-18T12:31:58.787Z,16.90
2019-02-18T12:34:26.299Z,22.73
2019-02-18T12:36:54.030Z,18.67
2019-02-18T12:39:22.734Z,19.57
2019-02-18T12:41:50.335Z,20.83
2019-02-18T12:44:17.665Z,19.63
2019-02-18T12:46:45.056Z,19.83
2019-02-18T12:49:12.379Z,22.17
2019-02-18T12:51:39.792Z,21.53
2019-02-18T12:54:07.424Z,24.17
2019-02-18T12:56:34.835Z,22.53
2019-02-18T12:59:02.266Z,20.33
2019-02-18T13:01:29.679Z,20.50
2019-02-18T13:03:57.260Z,23.13
2019-02-18T13:06:44.182Z,18.67
2019-02-18T13:09:12.082Z,26.27
2019-02-18T13:11:39.502Z,20.00
2019-02-18T13:14:06.934Z,17.17
2019-02-18T13:16:34.350Z,15.33
2019-02-18T13:19:01.755Z,18.93
2019-02-18T13:21:48.624Z,19.53
2019-02-18T13:24:16.365Z,18.17
2019-02-18T13:26:43.791Z,17.17
2019-02-18T13:29:11.214Z,15.43
2019-02-18T13:31:38.595Z,22.23
2019-02-18T13:34:06.022Z,15.00
2019-02-18T13:36:33.415Z,18.97
2019-02-18T13:39:20.393Z,25.10
2019-02-18T13:41:47.762Z,18.83
2019-02-18T13:44:15.039Z,17.53
2019-02-18T13:46:42.367Z,17.03
2019-02-18T13:49:09.742Z,17.60
2019-02-18T13:51:37.051Z,22.47
2019-02-18T13:54:04.462Z,20.97
2019-02-18T13:56:32.179Z,16.40
2019-02-18T13:58:59.606Z,16.80
2019-02-18T14:01:27.266Z,15.83
2019-02-18T14:03:54.685Z,19.13
2019-02-18T14:06:22.078Z,19.70
2019-02-18T14:09:08.948Z,15.13
2019-02-18T14:11:36.392Z,16.77
2019-02-18T14:14:03.874Z,16.17
2019-02-18T14:16:31.313Z,26.07
2019-02-18T14:18:58.690Z,18.90
2019-02-18T14:21:26.030Z,21.80
2019-02-18T14:23:53.399Z,15.30
2019-02-18T14:26:40.590Z,17.90
2019-02-18T14:29:08.150Z,15.77
2019-02-18T14:31:35.561Z,27.23
2019-02-18T14:34:02.944Z,18.27
2019-02-18T14:36:30.356Z,20.57
2019-02-18T14:38:58.162Z,16.90
2019-02-18T14:41:25.590Z,16.30
2019-02-18T14:43:52.896Z,15.77
2019-02-18T14:46:39.783Z,19.33
2019-02-18T14:49:07.214Z,19.33
2019-02-18T14:51:34.918Z,17.17
2019-02-18T14:54:02.318Z,17.23
2019-02-18T14:56:29.730Z,22.77
2019-02-18T14:58:57.069Z,20.60
2019-02-18T15:01:24.379Z,18.57
2019-02-18T15:03:51.798Z,24.57
2019-02-18T15:06:19.221Z,19.93
2019-02-18T15:09:06.207Z,18.57
2019-02-18T15:11:33.674Z,17.23
2019-02-18T15:14:20.456Z,19.63
2019-02-18T15:16:47.886Z,19.47
2019-02-18T15:19:15.298Z,23.77
2019-02-18T15:21:42.618Z,18.47
2019-02-18T15:24:29.443Z,15.60
2019-02-18T15:26:57.124Z,23.73
2019-02-18T15:29:24.522Z,18.87
2019-02-18T15:31:52.006Z,18.13
2019-02-18T15:34:19.438Z,22.47
2019-02-18T15:36:46.858Z,20.87
2019-02-18T15:39:14.259Z,18.30
2019-02-18T15:41:41.707Z,18.87
2019-02-18T15:44:09.092Z,18.13
2019-02-18T15:46:36.538Z,20.57
2019-02-18T15:49:04.169Z,17.77
2019-02-18T15:51:51.065Z,16.23
2019-02-18T15:54:18.544Z,22.87
2019-02-18T15:57:05.527Z,17.73
2019-02-18T15:59:32.962Z,19.07
2019-02-18T16:02:00.359Z,19.47
2019-02-18T16:04:27.781Z,29.23
2019-02-18T16:06:55.217Z,20.80
2019-02-18T16:09:22.647Z,27.27
2019-02-18T16:11:49.951Z,26.03
2019-02-18T16:14:17.727Z,19.70
2019-02-18T16:16:45.163Z,19.23
2019-02-18T16:19:12.607Z,19.43
2019-02-18T16:21:39.988Z,21.33
2019-02-18T16:24:07.419Z,19.67
2019-02-18T16:26:34.860Z,16.33
2019-02-18T16:29:02.267Z,18.80
2019-02-18T16:31:31.086Z,19.50
2019-02-18T16:34:18.352Z,17.13
2019-02-18T16:36:45.767Z,20.93
2019-02-18T16:39:13.178Z,17.67
2019-02-18T16:41:40.622Z,17.37
2019-02-18T16:44:08.100Z,19.80
2019-02-18T16:46:35.515Z,20.63
2019-02-18T16:49:03.243Z,23.73
2019-02-18T16:51:50.074Z,20.50
2019-02-18T16:54:17.579Z,22.77
2019-02-18T16:56:45.146Z,19.77
2019-02-18T16:59:12.559Z,21.93
2019-02-18T17:01:39.968Z,22.97
2019-02-18T17:04:07.427Z,27.17
2019-02-18T17:06:37.275Z,22.37
2019-02-18T17:09:10.275Z,20.07
2019-02-18T17:11:38.003Z,29.20
2019-02-18T17:14:05.430Z,22.73
2019-02-18T17:16:32.870Z,23.50
2019-02-18T17:19:00.218Z,23.23
2019-02-18T17:21:27.685Z,23.60
2019-02-18T17:23:55.092Z,22.67
2019-02-18T17:26:22.545Z,25.50
2019-02-18T17:28:49.966Z,24.70
2019-02-18T17:31:17.398Z,24.67
2019-02-18T17:33:44.802Z,26.30
2019-02-18T17:36:12.250Z,29.03
2019-02-18T17:38:39.684Z,22.23
2019-02-18T17:41:07.012Z,28.60
2019-02-18T17:43:34.605Z,26.47
2019-02-18T17:46:02.013Z,29.47
2019-02-18T17:48:49.190Z,26.60
2019-02-18T17:51:17.527Z,26.77
2019-02-18T17:54:04.408Z,26.07
2019-02-18T17:56:32.122Z,26.00
2019-02-18T17:58:59.445Z,25.00
2019-02-18T18:01:26.775Z,24.27
2019-02-18T18:03:54.179Z,22.70
2019-02-18T18:06:21.577Z,24.83
2019-02-18T18:08:48.991Z,27.10
2019-02-18T18:11:16.393Z,32.07
2019-02-18T18:13:44.191Z,25.10
2019-02-18T18:16:11.634Z,25.23
2019-02-18T18:18:38.979Z,23.73
2019-02-18T18:21:06.398Z,28.00
2019-02-18T18:23:33.881Z,26.03
2019-02-18T18:26:01.305Z,27.63
2019-02-18T18:28:28.707Z,23.33
2019-02-18T18:30:56.546Z,29.63
2019-02-18T18:33:44.442Z,26.33
2019-02-18T18:36:11.882Z,24.83
2019-02-18T18:38:39.280Z,27.23
2019-02-18T18:41:06.723Z,23.67
2019-02-18T18:43:34.486Z,28.70
2019-02-18T18:46:01.920Z,26.63
2019-02-18T18:48:29.383Z,29.50
2019-02-18T18:51:16.254Z,20.00
2019-02-18T18:53:43.633Z,24.87
2019-02-18T18:56:11.354Z,20.83
2019-02-18T18:58:38.797Z,23.77
2019-02-18T19:01:06.107Z,18.27
2019-02-18T19:03:33.540Z,24.03
2019-02-18T19:06:01.006Z,23.13
2019-02-18T19:08:28.319Z,26.60
2019-02-18T19:10:55.634Z,22.03
2019-02-18T19:13:23.189Z,22.77
2019-02-18T19:15:50.503Z,26.23
2019-02-18T19:18:17.918Z,25.57
2019-02-18T19:20:45.430Z,26.97
2019-02-18T19:23:12.875Z,23.17
2019-02-18T19:25:40.280Z,25.97
2019-02-18T19:28:07.659Z,23.17
2019-02-18T19:30:35.079Z,23.97
2019-02-18T19:33:02.410Z,22.77
2019-02-18T19:35:29.828Z,34.87
2019-02-18T19:37:57.168Z,27.37
2019-02-18T19:40:24.570Z,20.50
2019-02-18T19:42:51.994Z,22.00
2019-02-18T19:45:20.422Z,28.60
2019-02-18T19:47:47.888Z,23.13
2019-02-18T19:50:15.329Z,23.20
2019-02-18T19:52:42.795Z,22.00
2019-02-18T19:55:10.223Z,24.70
2019-02-18T19:57:37.671Z,26.47
2019-02-18T20:00:05.447Z,31.17
2019-02-18T20:02:33.179Z,28.77
2019-02-18T20:05:00.613Z,22.17
2019-02-18T20:07:27.931Z,24.63
2019-02-18T20:09:55.392Z,23.10
2019-02-18T20:12:22.812Z,23.27
2019-02-18T20:14:50.238Z,23.07
2019-02-18T20:17:17.687Z,23.13
2019-02-18T20:19:45.295Z,21.27
2019-02-18T20:22:12.738Z,31.80
2019-02-18T20:24:40.161Z,29.60
2019-02-18T20:27:07.522Z,32.30
2019-02-18T20:29:34.829Z,25.60
2019-02-18T20:32:02.235Z,27.37
2019-02-18T20:34:29.627Z,23.23
2019-02-18T20:36:57.466Z,23.47
2019-02-18T20:39:24.836Z,29.97
2019-02-18T20:41:52.203Z,25.87
2019-02-18T20:44:19.632Z,21.23
2019-02-18T20:46:46.980Z,25.50
2019-02-18T20:49:14.453Z,26.37
2019-02-18T20:51:41.892Z,27.17
2019-02-18T20:54:10.166Z,24.87
2019-02-18T20:56:37.724Z,23.17
2019-02-18T20:59:05.194Z,26.00
2019-02-18T21:01:32.616Z,27.57
2019-02-18T21:04:00.118Z,26.50
2019-02-18T21:06:27.551Z,29.67
2019-02-18T21:08:54.943Z,27.67
2019-02-18T21:11:22.579Z,30.10
2019-02-18T21:13:50.033Z,27.23
2019-02-18T21:16:17.445Z,29.57
2019-02-18T21:18:44.766Z,23.43
2019-02-18T21:21:12.111Z,28.20
2019-02-18T21:23:39.522Z,33.30
2019-02-18T21:26:06.959Z,31.70
2019-02-18T21:28:34.551Z,29.83
2019-02-18T21:31:21.327Z,27.73
2019-02-18T21:34:08.213Z,23.93
2019-02-18T21:36:35.966Z,20.30
2019-02-18T21:39:06.173Z,19.87
2019-02-18T21:41:33.563Z,16.23
2019-02-18T21:44:25.254Z,12.07
2019-02-18T21:46:49.575Z,11.23
2019-02-18T21:49:16.895Z,8.13
2019-02-18T21:52:03.699Z,16.57
2019-02-18T21:54:31.231Z,9.23
2019-02-18T21:56:58.563Z,10.30
2019-02-18T21:59:25.898Z,10.13
2019-02-18T22:01:53.304Z,8.33
2019-02-18T22:04:20.718Z,9.57
2019-02-18T22:06:48.075Z,7.00
2019-02-18T22:09:34.887Z,7.03
2019-02-18T22:12:02.372Z,7.27
2019-02-18T22:14:33.611Z,6.13
2019-02-18T22:16:59.435Z,4.43
2019-02-18T22:19:26.771Z,5.93
2019-02-18T22:21:54.108Z,8.87
2019-02-18T22:24:21.527Z,7.63
2019-02-18T22:26:48.851Z,6.13
2019-02-18T22:29:16.160Z,6.30
2019-02-18T22:31:44.018Z,4.43
2019-02-18T22:34:11.438Z,4.30
2019-02-18T22:36:38.751Z,6.20
2019-02-18T22:39:06.374Z,2.93
2019-02-18T22:41:33.776Z,6.67
2019-02-18T22:44:01.218Z,5.77
2019-02-18T22:46:28.591Z,4.27
2019-02-18T22:49:15.476Z,6.70
2019-02-18T22:51:43.086Z,4.73
2019-02-18T22:54:29.967Z,4.67
2019-02-18T22:56:57.303Z,3.37
2019-02-18T22:59:25.051Z,2.53
2019-02-18T23:01:52.426Z,2.17
2019-02-18T23:04:19.736Z,3.17
2019-02-18T23:06:47.142Z,4.67
2019-02-18T23:09:15.134Z,4.97
2019-02-18T23:11:42.532Z,5.23
2019-02-18T23:14:09.825Z,2.77
2019-02-18T23:16:37.145Z,5.87
2019-02-18T23:19:04.832Z,7.47
2019-02-18T23:21:32.150Z,4.50
2019-02-18T23:23:59.446Z,4.80
2019-02-18T23:26:26.798Z,6.60
2019-02-18T23:28:54.102Z,4.90
2019-02-18T23:31:21.490Z,5.20
2019-02-18T23:33:48.843Z,5.57
2019-02-18T23:36:16.262Z,6.50
2019-02-18T23:38:43.719Z,3.90
2019-02-18T23:41:30.495Z,5.20
2019-02-18T23:43:57.952Z,6.50
2019-02-18T23:46:25.233Z,3.37
2019-02-18T23:48:52.532Z,7.43
2019-02-18T23:51:19.871Z,8.43
2019-02-18T23:53:47.494Z,5.97
2019-02-18T23:56:14.818Z,6.03
2019-02-18T23:58:42.270Z,5.70
